Lawrenceville, NJ

03:32 EST dnia 31-styczeń-2015 (GMT -0500)
APRSWXNET Mercerville NJ US | Change Station
CLOSE
Current Station
Stacja PWS
Location: Lawrenceville, NJ
n.p.m.: 62 ft
Najbliższa stacja pogodowa
Aktywne zalecenia: Wind Advisory, Special Statement

Wysokość 62 ft 40.25 °N, 74.68 °W | Updated 28 minutes ago

pogodnie
pogodnie
15 ° F
Odczuwalna 7 ° F
Płn.
5
Wiatr zmienny Wiatr od ZdPnZd
Gusts 10.0 mph

Dziś
Wysoka -- | Niska -- ° F
--% Prawdop. opadów
Wczoraj
Wysoka -- | Niska -- ° F
Precip. -- cali
7:08 AM 5:15 PM
Powiększający się Księżyc, 88% visible
Ciśnienie 30.12 cali
Widzialność 10.0 mil
chmury pogodnie
czynnik chłodzący wiatru 7 ° F
Punkt rosy 1 ° F
Wilgotność 53%
Opady deszczu 0.00 cali
grubość pokrywy śnieżnej Niedostępne.
UV 0 z 12
Pyłki .10 z 12
Jakość powietrza Niedostępne.
Flu Activity Niedostępne.
METAR KTTN 310753Z AUTO 31011G21KT 10SM CLR M10/M19 A3013 RMK AO2 SLP199 T11001189

More Conditions Fewer Conditions

Ciśnienie 30.12 cali
Widzialność 10.0 mil
chmury pogodnie
czynnik chłodzący wiatru 7 ° F
Punkt rosy 1 ° F
Wilgotność 53%
Opady deszczu 0.00 cali
grubość pokrywy śnieżnej Niedostępne.
UV 0 z 12
Pyłki .10 z 12
Jakość powietrza Niedostępne.
Flu Activity Niedostępne.
METAR KTTN 310753Z AUTO 31011G21KT 10SM CLR M10/M19 A3013 RMK AO2 SLP199 T11001189

More Conditions Fewer Conditions

10-Day Weather Forecast

Almanac

Astronomia

Jan. 31, 2015 Wschód Zachów
Aktualny czas
Zmierzch cywilny
Zmierzch żeglarski
świt/zmierzch astronomiczny
Księżyc
całkowite oświetlenie
Długość dnia
Tomorrow will be .
, % of the Moon is Illuminated

Dzisiejsze ekstrema

State Highs State Lows

Community

WunderPhotos

Upload Photos

1,792,021 zdjęcia zostały przesłane!

WunderBlogs® & News

Nearby

Jakość powietrza

  Jakość powietrza czynnik AQ Zanieczyszczenie
Not available.

Głębokość pokrywy śnieżnej

Station Depth n.p.m.

Aktywność sejsmiczna

Miejscowość Distance Mag. Time & Date
Minimum magnitude displayed is 2.5.

Temperatury wody na wybrzeżu

Miejsce Temperatura

Najbliższa stacja pogodowa